createdAt,value
2023-10-03T00:02:50.636Z,54.40
2023-10-03T00:05:17.322Z,55.20
2023-10-03T00:07:43.866Z,54.70
2023-10-03T00:10:10.394Z,55.10
2023-10-03T00:12:36.927Z,55.30
2023-10-03T00:15:03.439Z,55.20
2023-10-03T00:17:30.017Z,55.60
2023-10-03T00:19:56.605Z,55.60
2023-10-03T00:22:23.086Z,55.50
2023-10-03T00:24:49.593Z,55.40
2023-10-03T00:29:43.146Z,55.50
2023-10-03T00:37:03.741Z,55.30
2023-10-03T00:39:30.212Z,55.20
2023-10-03T00:44:23.771Z,55.90
2023-10-03T00:46:50.317Z,55.60
2023-10-03T00:51:43.892Z,55.10
2023-10-03T00:54:10.417Z,55.50
2023-10-03T00:59:04.320Z,55.50
2023-10-03T01:01:30.931Z,55.30
2023-10-03T01:06:24.696Z,55.40
2023-10-03T01:11:18.321Z,55.30
2023-10-03T01:13:44.846Z,55.60
2023-10-03T01:16:11.419Z,55.30
2023-10-03T01:21:05.044Z,55.80
2023-10-03T01:23:31.574Z,54.60
2023-10-03T01:28:25.180Z,55.50
2023-10-03T01:30:51.759Z,55.30
2023-10-03T01:33:18.339Z,55.20
2023-10-03T01:35:45.012Z,55.20
2023-10-03T01:38:11.593Z,55.60
2023-10-03T01:40:39.081Z,55.10
2023-10-03T01:43:07.271Z,55.10
2023-10-03T01:45:34.060Z,55.40
2023-10-03T01:48:01.149Z,55.20
2023-10-03T01:50:27.867Z,55.00
2023-10-03T01:52:54.371Z,55.20
2023-10-03T01:57:47.921Z,55.60
2023-10-03T02:00:14.436Z,55.30
2023-10-03T02:05:08.131Z,55.40
2023-10-03T02:07:34.678Z,55.20
2023-10-03T02:12:28.261Z,55.00
2023-10-03T02:14:54.850Z,54.80
2023-10-03T02:19:48.626Z,55.50
2023-10-03T02:22:15.160Z,54.30
2023-10-03T02:24:41.660Z,55.50
2023-10-03T02:27:08.186Z,55.50
2023-10-03T02:29:34.806Z,55.40
2023-10-03T02:32:01.404Z,54.60
2023-10-03T02:34:27.901Z,55.20
2023-10-03T02:36:54.411Z,55.60
2023-10-03T02:39:20.894Z,55.50
2023-10-03T02:41:47.444Z,54.60
2023-10-03T02:46:41.029Z,55.30
2023-10-03T02:51:34.577Z,55.20
2023-10-03T02:54:01.098Z,55.10
2023-10-03T02:56:27.673Z,55.40
2023-10-03T02:58:54.211Z,55.10
2023-10-03T03:03:47.925Z,55.30
2023-10-03T03:08:42.067Z,55.10
2023-10-03T03:13:35.666Z,55.00
2023-10-03T03:16:02.375Z,55.10
2023-10-03T03:18:29.372Z,55.60
2023-10-03T03:20:56.019Z,55.10
2023-10-03T03:23:22.608Z,55.40
2023-10-03T03:25:49.117Z,55.40
2023-10-03T03:28:15.637Z,54.60
2023-10-03T03:30:42.182Z,55.30
2023-10-03T03:33:08.760Z,55.20
2023-10-03T03:35:35.459Z,55.50
2023-10-03T03:38:01.980Z,55.60
2023-10-03T03:40:28.523Z,55.30
2023-10-03T03:42:55.035Z,55.10
2023-10-03T03:45:21.516Z,55.00
2023-10-03T03:50:15.138Z,55.80
2023-10-03T03:52:41.648Z,55.40
2023-10-03T03:57:35.121Z,54.80
2023-10-03T04:00:01.678Z,55.50
2023-10-03T04:04:55.293Z,55.30
2023-10-03T04:07:21.813Z,55.40
2023-10-03T04:12:15.395Z,55.60
2023-10-03T04:14:41.996Z,55.60
2023-10-03T04:17:08.526Z,55.60
2023-10-03T04:22:02.029Z,55.70
2023-10-03T04:24:28.556Z,55.40
2023-10-03T04:26:55.151Z,55.30
2023-10-03T04:29:21.772Z,54.60
2023-10-03T04:31:48.736Z,55.30
2023-10-03T04:36:42.482Z,55.30
2023-10-03T04:41:38.610Z,54.70
2023-10-03T04:44:05.150Z,55.30
2023-10-03T04:48:58.725Z,54.80
2023-10-03T04:51:25.240Z,55.50
2023-10-03T04:56:18.897Z,55.50
2023-10-03T04:58:45.397Z,54.80
2023-10-03T05:01:11.931Z,55.60
2023-10-03T05:03:38.612Z,55.30
2023-10-03T05:06:05.213Z,55.70
2023-10-03T05:08:31.760Z,54.50
2023-10-03T05:13:25.326Z,55.40
2023-10-03T05:15:51.841Z,55.90
2023-10-03T05:18:18.456Z,55.10
2023-10-03T05:20:45.101Z,55.70
2023-10-03T05:23:11.631Z,55.10
2023-10-03T05:25:38.265Z,55.50
2023-10-03T05:28:04.818Z,55.60
2023-10-03T05:30:31.315Z,55.80
2023-10-03T05:32:57.854Z,55.80
2023-10-03T05:35:24.431Z,55.50
2023-10-03T05:40:17.992Z,54.70
2023-10-03T05:42:44.504Z,55.60
2023-10-03T05:45:11.002Z,55.70
2023-10-03T05:47:37.525Z,54.90
2023-10-03T05:50:04.098Z,55.70
2023-10-03T05:52:30.644Z,55.40
2023-10-03T05:54:57.130Z,55.40
2023-10-03T05:57:23.656Z,55.80
2023-10-03T05:59:50.226Z,56.00
2023-10-03T06:02:16.763Z,56.10
2023-10-03T06:04:43.331Z,56.00
2023-10-03T06:09:36.890Z,55.70
2023-10-03T06:12:03.434Z,55.30
2023-10-03T06:14:29.966Z,55.60
2023-10-03T06:16:56.565Z,54.90
2023-10-03T06:19:23.139Z,55.00
2023-10-03T06:21:49.663Z,54.90
2023-10-03T06:24:16.234Z,54.60
2023-10-03T06:26:45.249Z,54.00
2023-10-03T06:29:12.822Z,54.70
2023-10-03T06:31:39.357Z,54.40
2023-10-03T06:34:05.885Z,54.80
2023-10-03T06:36:32.393Z,54.60
2023-10-03T06:38:58.928Z,54.90
2023-10-03T06:41:25.485Z,54.90
2023-10-03T06:43:52.030Z,55.10
2023-10-03T06:46:18.607Z,54.40
2023-10-03T06:51:12.220Z,55.00
2023-10-03T06:53:38.758Z,54.70
2023-10-03T06:56:05.282Z,54.80
2023-10-03T06:58:31.787Z,55.30
2023-10-03T07:00:58.427Z,55.30
2023-10-03T07:03:25.333Z,55.40
2023-10-03T07:05:52.034Z,54.80
2023-10-03T07:08:18.632Z,55.70
2023-10-03T07:10:45.158Z,55.30
2023-10-03T07:13:11.644Z,55.60
2023-10-03T07:15:38.143Z,55.20
2023-10-03T07:18:04.781Z,56.00
2023-10-03T07:20:31.456Z,55.80
2023-10-03T07:25:25.000Z,55.50
2023-10-03T07:27:51.536Z,56.50
2023-10-03T07:30:18.122Z,55.80
2023-10-03T07:32:44.792Z,55.60
2023-10-03T07:35:11.348Z,55.50
2023-10-03T07:37:37.863Z,56.00
2023-10-03T07:42:31.425Z,55.40
2023-10-03T07:44:57.949Z,55.50
2023-10-03T07:49:51.586Z,56.30
2023-10-03T07:52:18.066Z,56.40
2023-10-03T07:54:44.688Z,56.20
2023-10-03T07:57:11.317Z,56.20
2023-10-03T08:02:05.077Z,56.10
2023-10-03T08:04:34.127Z,56.30
2023-10-03T08:07:00.994Z,56.40
2023-10-03T08:09:27.508Z,56.80
2023-10-03T08:11:54.059Z,56.80
2023-10-03T08:14:20.601Z,56.50
2023-10-03T08:16:47.243Z,56.60
2023-10-03T08:19:13.823Z,56.60
2023-10-03T08:21:40.317Z,56.60
2023-10-03T08:24:06.882Z,56.40
2023-10-03T08:26:33.433Z,56.70
2023-10-03T08:31:27.617Z,56.80
2023-10-03T08:36:21.251Z,56.50
2023-10-03T08:38:47.847Z,56.50
2023-10-03T08:43:41.463Z,56.20
2023-10-03T08:48:36.029Z,56.20
2023-10-03T08:51:02.948Z,56.70
2023-10-03T08:53:29.600Z,56.10
2023-10-03T08:55:56.162Z,56.40
2023-10-03T08:58:22.686Z,56.20
2023-10-03T09:00:49.210Z,56.80
2023-10-03T09:03:15.839Z,56.00
2023-10-03T09:05:42.564Z,56.20
2023-10-03T09:10:36.241Z,56.40
2023-10-03T09:13:02.812Z,56.10
2023-10-03T09:15:29.421Z,55.70
2023-10-03T09:17:55.981Z,55.90
2023-10-03T09:20:22.749Z,56.40
2023-10-03T09:22:49.571Z,56.10
2023-10-03T09:25:16.077Z,55.80
2023-10-03T09:27:42.574Z,56.00
2023-10-03T09:30:09.107Z,55.60
2023-10-03T09:32:35.732Z,56.90
2023-10-03T09:35:02.295Z,55.90
2023-10-03T09:37:28.826Z,55.80
2023-10-03T09:39:55.315Z,55.80
2023-10-03T09:42:21.812Z,56.00
2023-10-03T09:47:15.434Z,55.70
2023-10-03T09:49:42.255Z,55.40
2023-10-03T09:52:08.870Z,56.00
2023-10-03T09:54:35.385Z,55.70
2023-10-03T09:57:01.982Z,55.50
2023-10-03T09:59:28.586Z,56.50
2023-10-03T10:01:55.077Z,55.30
2023-10-03T10:04:21.853Z,55.50
2023-10-03T10:06:48.600Z,55.50
2023-10-03T10:09:15.449Z,55.90
2023-10-03T10:11:42.058Z,55.80
2023-10-03T10:14:08.605Z,55.40
2023-10-03T10:16:35.142Z,55.50
2023-10-03T10:19:02.614Z,55.20
2023-10-03T10:21:29.899Z,55.20
2023-10-03T10:23:56.467Z,55.30
2023-10-03T10:26:22.965Z,55.40
2023-10-03T10:28:49.469Z,56.90
2023-10-03T10:31:16.028Z,55.30
2023-10-03T10:33:43.722Z,55.60
2023-10-03T10:36:10.463Z,56.30
2023-10-03T10:38:37.046Z,56.40
2023-10-03T10:43:30.686Z,55.70
2023-10-03T10:45:57.206Z,56.40
2023-10-03T10:50:50.916Z,56.00
2023-10-03T10:53:17.450Z,56.20
2023-10-03T10:58:11.218Z,55.70
2023-10-03T11:00:37.882Z,56.60
2023-10-03T11:05:31.738Z,55.50
2023-10-03T11:07:58.403Z,55.80
2023-10-03T11:10:34.874Z,55.80
2023-10-03T11:13:01.982Z,55.50
2023-10-03T11:15:28.518Z,55.50
2023-10-03T11:17:55.114Z,55.80
2023-10-03T11:20:21.705Z,55.00
2023-10-03T11:22:48.217Z,55.10
2023-10-03T11:25:14.752Z,55.60
2023-10-03T11:27:41.263Z,55.10
2023-10-03T11:30:07.764Z,55.30
2023-10-03T11:32:34.742Z,55.00
2023-10-03T11:35:01.446Z,55.50
2023-10-03T11:37:27.951Z,54.50
2023-10-03T11:39:54.476Z,54.90
2023-10-03T11:42:20.967Z,55.10
2023-10-03T11:44:47.515Z,56.00
2023-10-03T11:47:14.005Z,55.20
2023-10-03T11:54:34.622Z,55.30
2023-10-03T11:57:01.176Z,55.30
2023-10-03T11:59:27.729Z,55.60
2023-10-03T12:01:54.227Z,55.30
2023-10-03T12:04:20.780Z,54.70
2023-10-03T12:06:47.328Z,55.10
2023-10-03T12:09:13.949Z,55.10
2023-10-03T12:11:40.533Z,55.50
2023-10-03T12:14:07.026Z,56.10
2023-10-03T12:16:33.634Z,55.40
2023-10-03T12:19:00.313Z,56.20
2023-10-03T12:21:26.901Z,55.60
2023-10-03T12:23:53.474Z,55.50
2023-10-03T12:26:27.263Z,55.80
2023-10-03T12:28:54.586Z,55.50
2023-10-03T12:31:21.231Z,55.60
2023-10-03T12:33:47.801Z,55.80
2023-10-03T12:36:14.358Z,55.60
2023-10-03T12:38:41.036Z,55.80
2023-10-03T12:41:07.600Z,56.10
2023-10-03T12:43:34.141Z,56.00
2023-10-03T12:46:00.680Z,55.70
2023-10-03T12:48:27.282Z,56.20
2023-10-03T12:50:54.055Z,56.30
2023-10-03T12:53:20.613Z,56.10
2023-10-03T12:55:47.176Z,56.30
2023-10-03T12:58:13.754Z,55.90
2023-10-03T13:00:40.274Z,56.70
2023-10-03T13:03:06.991Z,56.20
2023-10-03T13:05:33.613Z,56.60
2023-10-03T13:08:00.153Z,56.30
2023-10-03T13:10:26.655Z,56.60
2023-10-03T13:12:53.435Z,56.70
2023-10-03T13:15:20.228Z,57.00
2023-10-03T13:17:46.989Z,56.70
2023-10-03T13:20:13.576Z,56.80
2023-10-03T13:22:40.069Z,56.90
2023-10-03T13:25:06.584Z,57.00
2023-10-03T13:27:33.107Z,56.90
2023-10-03T13:30:00.359Z,54.00
2023-10-03T13:32:28.310Z,57.70
2023-10-03T13:34:54.878Z,57.40
2023-10-03T13:37:21.389Z,57.90
2023-10-03T13:39:47.885Z,57.10
2023-10-03T13:42:14.451Z,56.80
2023-10-03T13:44:41.000Z,57.10
2023-10-03T13:47:07.549Z,56.80
2023-10-03T13:49:34.030Z,57.10
2023-10-03T13:52:00.542Z,56.90
2023-10-03T13:54:27.140Z,56.80
2023-10-03T13:56:53.674Z,56.90
2023-10-03T13:59:20.333Z,57.00
2023-10-03T14:01:46.869Z,57.10
2023-10-03T14:04:13.435Z,57.10
2023-10-03T14:06:40.044Z,57.60
2023-10-03T14:09:06.644Z,57.40
2023-10-03T14:11:33.232Z,56.80
2023-10-03T14:13:59.814Z,57.30
2023-10-03T14:16:26.373Z,57.20
2023-10-03T14:18:52.991Z,57.70
2023-10-03T14:21:24.032Z,57.20
2023-10-03T14:23:55.708Z,57.60
2023-10-03T14:26:22.310Z,57.60
2023-10-03T14:28:48.840Z,57.00
2023-10-03T14:31:15.436Z,57.10
2023-10-03T14:33:42.153Z,57.60
2023-10-03T14:36:08.816Z,57.50
2023-10-03T14:38:35.377Z,57.20
2023-10-03T14:41:01.989Z,57.50
2023-10-03T14:43:28.520Z,56.80
2023-10-03T14:45:55.096Z,57.20
2023-10-03T14:48:21.706Z,56.70
2023-10-03T14:50:48.281Z,57.50
2023-10-03T14:53:14.877Z,56.80
2023-10-03T14:55:41.465Z,57.30
2023-10-03T14:58:07.989Z,56.90
2023-10-03T15:00:34.516Z,56.80
2023-10-03T15:03:01.124Z,57.40
2023-10-03T15:05:27.709Z,57.10
2023-10-03T15:07:54.348Z,57.40
2023-10-03T15:10:20.852Z,57.60
2023-10-03T15:12:47.390Z,57.30
2023-10-03T15:15:13.993Z,57.60
2023-10-03T15:17:40.602Z,57.50
2023-10-03T15:20:07.304Z,57.70
2023-10-03T15:22:33.832Z,57.70
2023-10-03T15:25:00.403Z,57.20
2023-10-03T15:27:26.927Z,57.20
2023-10-03T15:29:53.659Z,57.20
2023-10-03T15:32:20.237Z,57.70
2023-10-03T15:34:46.741Z,57.40
2023-10-03T15:37:13.333Z,57.10
2023-10-03T15:39:39.933Z,57.20
2023-10-03T15:42:06.532Z,57.10
2023-10-03T15:44:33.187Z,57.00
2023-10-03T15:46:59.761Z,57.50
2023-10-03T15:49:26.333Z,57.10
2023-10-03T15:51:53.044Z,57.30
2023-10-03T15:54:19.655Z,57.00
2023-10-03T15:56:46.280Z,57.20
2023-10-03T15:59:12.834Z,57.40
2023-10-03T16:04:06.899Z,57.50
2023-10-03T16:06:33.661Z,57.50
2023-10-03T16:09:00.246Z,57.30
2023-10-03T16:11:26.801Z,57.70
2023-10-03T16:13:53.417Z,57.40
2023-10-03T16:16:20.046Z,56.90
2023-10-03T16:18:46.616Z,57.40
2023-10-03T16:23:40.351Z,57.30
2023-10-03T16:26:06.884Z,57.40
2023-10-03T16:28:33.414Z,57.40
2023-10-03T16:31:00.116Z,57.40
2023-10-03T16:33:26.899Z,57.40
2023-10-03T16:38:20.763Z,57.40
2023-10-03T16:40:47.383Z,57.50
2023-10-03T16:45:40.987Z,58.00
2023-10-03T16:48:07.621Z,57.60
2023-10-03T16:50:34.207Z,57.30
2023-10-03T16:53:00.722Z,57.50
2023-10-03T16:55:27.242Z,56.20
2023-10-03T16:57:53.867Z,57.20
2023-10-03T17:02:47.669Z,57.30
2023-10-03T17:05:14.342Z,57.20
2023-10-03T17:07:40.859Z,58.30
2023-10-03T17:10:07.500Z,57.20
2023-10-03T17:12:34.156Z,57.30
2023-10-03T17:17:27.868Z,57.00
2023-10-03T17:19:54.449Z,57.10
2023-10-03T17:22:20.964Z,57.20
2023-10-03T17:24:47.472Z,56.90
2023-10-03T17:27:13.990Z,57.00
2023-10-03T17:29:40.538Z,57.00
2023-10-03T17:34:34.245Z,57.20
2023-10-03T17:37:00.887Z,57.40
2023-10-03T17:39:27.455Z,57.60
2023-10-03T17:41:54.078Z,57.00
2023-10-03T17:46:48.011Z,57.40
2023-10-03T17:49:14.560Z,57.30
2023-10-03T17:51:41.081Z,57.10
2023-10-03T17:54:16.380Z,57.10
2023-10-03T17:56:49.811Z,57.30
2023-10-03T17:59:16.328Z,57.20
2023-10-03T18:01:42.887Z,57.40
2023-10-03T18:04:09.484Z,57.20
2023-10-03T18:06:36.139Z,57.40
2023-10-03T18:09:03.115Z,57.30
2023-10-03T18:11:29.849Z,57.50
2023-10-03T18:13:56.479Z,57.30
2023-10-03T18:16:23.009Z,57.20
2023-10-03T18:18:49.872Z,57.30
2023-10-03T18:21:16.604Z,57.20
2023-10-03T18:23:43.214Z,56.20
2023-10-03T18:26:09.713Z,56.90
2023-10-03T18:28:36.253Z,57.60
2023-10-03T18:31:02.810Z,57.10
2023-10-03T18:33:29.508Z,57.30
2023-10-03T18:35:56.094Z,57.40
2023-10-03T18:38:22.743Z,57.30
2023-10-03T18:43:16.306Z,57.50
2023-10-03T18:45:55.419Z,57.50
2023-10-03T18:48:24.356Z,57.00
2023-10-03T18:50:51.048Z,57.10
2023-10-03T18:53:17.664Z,57.70
2023-10-03T18:55:44.189Z,57.10
2023-10-03T18:58:10.681Z,57.20
2023-10-03T19:00:37.257Z,57.20
2023-10-03T19:05:31.064Z,57.50
2023-10-03T19:07:57.614Z,57.40
2023-10-03T19:17:45.476Z,57.30
2023-10-03T19:20:12.130Z,57.20
2023-10-03T19:25:06.029Z,57.20
2023-10-03T19:27:32.600Z,57.20
2023-10-03T19:29:59.195Z,56.80
2023-10-03T19:32:25.860Z,57.00
2023-10-03T19:34:52.383Z,57.10
2023-10-03T19:37:18.935Z,56.90
2023-10-03T19:39:45.433Z,57.10
2023-10-03T19:42:12.174Z,57.10
2023-10-03T19:47:05.790Z,57.00
2023-10-03T19:49:32.291Z,55.80
2023-10-03T19:51:58.802Z,57.00
2023-10-03T19:54:25.392Z,57.10
2023-10-03T19:56:52.085Z,56.90
2023-10-03T19:59:18.622Z,57.10
2023-10-03T20:01:45.194Z,56.10
2023-10-03T20:04:11.729Z,56.90
2023-10-03T20:06:38.223Z,56.90
2023-10-03T20:09:04.935Z,57.10
2023-10-03T20:13:58.703Z,57.00
2023-10-03T20:16:25.246Z,56.90
2023-10-03T20:18:51.814Z,57.00
2023-10-03T20:21:18.620Z,56.60
2023-10-03T20:23:45.216Z,57.10
2023-10-03T20:26:11.776Z,56.90
2023-10-03T20:28:38.343Z,57.20
2023-10-03T20:31:04.912Z,57.00
2023-10-03T20:33:31.592Z,56.90
2023-10-03T20:35:58.373Z,56.70
2023-10-03T20:38:24.943Z,57.00
2023-10-03T20:40:51.451Z,56.90
2023-10-03T20:43:18.016Z,56.70
2023-10-03T20:45:44.589Z,56.80
2023-10-03T20:48:11.115Z,57.00
2023-10-03T20:50:37.668Z,56.90
2023-10-03T20:53:04.233Z,56.60
2023-10-03T20:57:57.840Z,56.90
2023-10-03T21:00:24.420Z,56.20
2023-10-03T21:05:18.102Z,56.80
2023-10-03T21:07:44.635Z,56.50
2023-10-03T21:10:11.128Z,56.70
2023-10-03T21:12:37.637Z,57.00
2023-10-03T21:15:04.165Z,56.70
2023-10-03T21:17:30.712Z,57.00
2023-10-03T21:19:57.302Z,56.80
2023-10-03T21:22:23.812Z,56.50
2023-10-03T21:24:50.358Z,56.50
2023-10-03T21:27:16.918Z,56.70
2023-10-03T21:29:43.506Z,56.80
2023-10-03T21:32:10.112Z,56.60
2023-10-03T21:34:36.686Z,56.50
2023-10-03T21:37:03.240Z,56.70
2023-10-03T21:39:29.800Z,56.30
2023-10-03T21:41:56.423Z,56.50
2023-10-03T21:44:22.904Z,56.30
2023-10-03T21:46:49.402Z,56.30
2023-10-03T21:49:15.944Z,56.80
2023-10-03T21:51:42.436Z,56.60
2023-10-03T21:56:36.063Z,56.50
2023-10-03T21:59:02.857Z,56.60
2023-10-03T22:01:29.658Z,56.20
2023-10-03T22:03:56.289Z,56.40
2023-10-03T22:06:22.841Z,56.70
2023-10-03T22:08:49.343Z,56.50
2023-10-03T22:11:15.852Z,56.70
2023-10-03T22:13:42.392Z,56.50
2023-10-03T22:16:08.972Z,55.70
2023-10-03T22:18:35.560Z,56.40
2023-10-03T22:21:02.120Z,55.50
2023-10-03T22:23:28.669Z,55.80
2023-10-03T22:28:22.233Z,56.30
2023-10-03T22:30:48.802Z,55.80
2023-10-03T22:33:15.457Z,56.20
2023-10-03T22:35:42.082Z,56.10
2023-10-03T22:38:09.343Z,56.60
2023-10-03T22:40:36.003Z,55.10
2023-10-03T22:43:02.532Z,56.70
2023-10-03T22:45:29.160Z,55.10
2023-10-03T22:47:55.811Z,56.00
2023-10-03T22:50:22.500Z,56.40
2023-10-03T22:52:49.093Z,56.40
2023-10-03T22:55:15.620Z,56.00
2023-10-03T23:05:03.463Z,55.90
2023-10-03T23:09:57.067Z,56.00
2023-10-03T23:12:23.622Z,55.90
2023-10-03T23:14:50.156Z,56.00
2023-10-03T23:19:43.789Z,55.80
2023-10-03T23:22:10.333Z,56.00
2023-10-03T23:27:04.022Z,55.90
2023-10-03T23:31:57.701Z,56.60
2023-10-03T23:34:24.245Z,56.40
2023-10-03T23:36:50.818Z,56.10
2023-10-03T23:41:44.390Z,56.00
2023-10-03T23:44:10.881Z,56.10
2023-10-03T23:49:04.552Z,55.20
2023-10-03T23:51:31.252Z,55.90
2023-10-03T23:53:57.859Z,56.10
2023-10-03T23:56:24.419Z,56.00
2023-10-03T23:58:50.962Z,55.50
